Western Bay, Canada
Current Conditions -  °F | °C
As of 8:00 PM on Thursday 27 Nov 2014 (Local Time) from CYYT Reporting Station
Broken Clouds Broken Clouds  
Wind Chill: 50°   Ceiling: 1700
Heat Index: 50°   Visibility: 15mi
Dew Point: 46°   Wind: 32mph
Humidity: 87%   Direction: 240°WSW
Pressure: 29.35"   Gusts: 51mph
Location:  47.9°N, 53.08°W
Report Text: CYYT 272300Z 24028G44KT 15SM BKN017 10/08 A2935 RMK SC7 SLP942 DENSITY ALT 600FT
Loading
Personal Weather Stations






























Interactive Weather Map New forecast layout! Learn more

10-Day Weather Forecast

Advertisements
Track Severe Weather on mobile